الصفحة الرئيسية
METAR-TAF:

METAR-TAF

مطار :

مطار نورمان مانلي الدولي

كينغستون, جامايكا

دائرة عرض: 17-56N, خط طول: 076-47W, ارتفاع: 3 متر

مراقبة الطقس الحالي

تاريخ ووقت الإصدار 1ساعة و 1 دقيقة قبل الساعة 10:00UTC
ريح 5 عقدة من الشمال
درجة الحرارة 27°درجة مئوية
الرطوبة 79%
ضغط 1014 hPa
الرؤية 10 كم أو أكثر
غيوم قليلة على ارتفاع 2000 قدم
غيوم متفرقة على ارتفاع 4000 قدم

METAR: MKJP 121000Z 01005KT 9999 FEW020 SCT040 27/23 Q1014

زمن: 06:01 (11:01 UTC)

توقعات

تاريخ ووقت الإصدار 5ساعات و 46 دقيقة قبل الساعة 05:15UTC
التوقعات صالحة من12 الساعة 06 UTC إلى 13 الساعة 06 UTC
ريح 5 عقدة من الشمال/الشمال الغربي
الرؤية 10 كم أو أكثر
غيوم قليلة على ارتفاع 2200 قدم
أصبح
من 12 الساعة 14 UTC إلى 12 الساعة 16 UTC
ريح 17 عقدة من الجنوب/الجنوب الشرقي
مؤقت
من 12 الساعة 18 UTC إلى 12 الساعة 22 UTC
غيوم متفرقة على ارتفاع 2000 قدم
غيوم قليلة على ارتفاع 2200 قدم, مزنة ركامية.
أصبح
من 13 الساعة 00 UTC إلى 13 الساعة 02 UTC
ريح 5 عقدة من الشمال/الشمال الغربي

TAF: MKJP 120515Z 1206/1306 33005KT 9999 FEW022 BECMG 1214/1216 15017KT TEMPO 1218/1222 SCT020 FEW022CB BECMG 1300/1302 34005KT

أرصاد الطقس والتوقعات من أكثر من 4000 مطار (تقارير الطقس للمطار METAR والتنبؤ بالطقس بالمطارTAF).

المحطات المتاحة هي النقط الصفراء والحمراء على الخريطة.

حرك المؤشر فوق النقطة لمعرفة اسم المحطة.

ثم انقر لمعرفة أرصاد وتوقعات الطقس.

لتغيير الخارطة: اضغط على الأزرار الخضراء مع رمز الصليب الأسود للتكبير. على الزر الأخضر مع شرطة للتصغير، أو على الأسهم الخضراء للخرائط المجاورة.


METAR-TAF: